| time (UTC) | temp F | wind direction | speed knots | gust knots | rain 1hr in | rain 24hr in | rain mn in | humidity % | barometer mb |
| 20260508010057 | 54 | 103 | 0.0 | 0.0 | 0.00 | 1.33 | 1.31 | 14 | 1013.4 |
| 20260508004553 | 54 | 103 | 0.0 | 0.0 | 0.00 | 1.33 | 1.31 | 14 | 1013.3 |
| 20260508003059 | 55 | 103 | 0.0 | 0.0 | 0.00 | 1.33 | 1.31 | 14 | 1013.2 |
| 20260508001545 | 55 | 103 | 0.0 | 0.0 | 0.00 | 1.33 | 1.31 | 13 | 1012.9 |
| 20260508000044 | 55 | 103 | 0.0 | 0.0 | 0.00 | 1.33 | 1.31 | 13 | 1012.7 |
| 20260507234539 | 55 | 103 | 0.0 | 0.0 | 0.00 | 1.33 | 1.31 | 13 | 1012.8 |
| 20260507233036 | 55 | 103 | 0.0 | 0.9 | 0.00 | 1.33 | 1.31 | 12 | 1012.4 |
| 20260507231530 | 55 | 103 | 0.0 | 0.0 | 0.00 | 1.33 | 1.31 | 12 | 1012.1 |
| 20260507230022 | 55 | 103 | 0.0 | 0.9 | 0.00 | 1.33 | 1.31 | 12 | 1012.0 |
| 20260507224519 | 55 | 172 | 0.0 | 1.7 | 0.00 | 1.33 | 1.31 | 12 | 1011.5 |
| 20260507223014 | 56 | 179 | 0.0 | 0.9 | 0.00 | 1.33 | 1.31 | 11 | 1012.0 |
| 20260507221505 | 56 | 164 | 0.0 | 0.0 | 0.00 | 1.33 | 1.31 | 11 | 1012.2 |
| 20260507220104 | 56 | 164 | 0.0 | 0.9 | 0.00 | 1.33 | 1.31 | 11 | 1012.3 |
| 20260507214603 | 57 | 174 | 0.0 | 0.9 | 0.00 | 1.33 | 1.31 | 11 | 1011.9 |
| 20260507213051 | 56 | 131 | 0.0 | 2.6 | 0.00 | 1.33 | 1.31 | 11 | 1011.9 |
| 20260507211602 | 56 | 153 | 0.0 | 1.7 | 0.00 | 1.33 | 1.31 | 11 | 1011.8 |
| 20260507210043 | 56 | 105 | 0.0 | 2.6 | 0.00 | 1.33 | 1.31 | 11 | 1011.8 |
| 20260507204539 | 56 | 177 | 0.0 | 2.6 | 0.00 | 1.33 | 1.31 | 11 | 1011.5 |
| 20260507203034 | 56 | 129 | 0.0 | 1.7 | 0.00 | 1.33 | 1.31 | 11 | 1011.4 |
| 20260507201532 | 56 | 94 | 0.0 | 2.6 | 0.00 | 1.33 | 1.31 | 11 | 1011.4 |
| 20260507200026 | 56 | 170 | 0.0 | 1.7 | 0.01 | 1.33 | 1.31 | 11 | 1011.6 |
| 20260507194524 | 56 | 145 | 0.0 | 1.7 | 0.02 | 1.33 | 1.31 | 11 | 1011.5 |
| 20260507193018 | 56 | 144 | 0.0 | 1.7 | 0.02 | 1.33 | 1.31 | 10 | 1011.8 |
| 20260507191513 | 56 | 133 | 0.0 | 2.6 | 0.03 | 1.33 | 1.31 | 10 | 1011.6 |
| 20260507190009 | 56 | 152 | 0.0 | 2.6 | 0.03 | 1.32 | 1.30 | 10 | 1011.6 |
| 20260507184511 | 57 | 171 | 0.0 | 3.5 | 0.02 | 1.31 | 1.29 | 9 | 1011.3 |
| 20260507183100 | 57 | 152 | 0.0 | 3.5 | 0.02 | 1.31 | 1.29 | 9 | 1011.3 |
| 20260507181555 | 57 | 179 | 0.0 | 0.9 | 0.01 | 1.30 | 1.28 | 9 | 1011.0 |
| 20260507180051 | 57 | 133 | 0.0 | 2.6 | 0.00 | 1.29 | 1.27 | 9 | 1011.2 |
| 20260507174549 | 57 | 176 | 0.0 | 3.5 | 0.01 | 1.29 | 1.27 | 9 | 1011.6 |
| 20260507173042 | 58 | 167 | 0.0 | 4.3 | 0.03 | 1.29 | 1.27 | 8 | 1011.3 |
| 20260507171538 | 58 | 149 | 0.0 | 1.7 | 0.04 | 1.29 | 1.27 | 7 | 1010.7 |
| 20260507170034 | 58 | 93 | 0.0 | 2.6 | 0.05 | 1.29 | 1.27 | 7 | 1010.6 |
| 20260507164528 | 58 | 158 | 0.0 | 3.5 | 0.05 | 1.28 | 1.26 | 7 | 1010.9 |
| 20260507163026 | 59 | 176 | 0.0 | 2.6 | 0.06 | 1.26 | 1.24 | 6 | 1010.8 |
| 20260507161519 | 61 | 148 | 0.9 | 3.5 | 0.07 | 1.25 | 1.23 | 8 | 1011.9 |
| 20260507160015 | 67 | 150 | 0.0 | 1.7 | 0.07 | 1.24 | 1.22 | 1 | 1011.3 |
| 20260507154510 | 67 | 147 | 0.0 | 0.0 | 0.07 | 1.23 | 1.21 | 1 | 1011.1 |
| 20260507153006 | 67 | 147 | 0.0 | 0.0 | 0.07 | 1.20 | 1.18 | 1 | 1010.9 |
| 20260507151501 | 67 | 147 | 0.0 | 0.0 | 0.07 | 1.18 | 1.15 | 1 | 1011.1 |
| 20260507150058 | 67 | 147 | 0.0 | 0.0 | 0.07 | 1.17 | 1.14 | 1 | 1010.9 |
| 20260507144553 | 67 | 147 | 0.0 | 0.0 | 0.07 | 1.14 | 1.12 | 1 | 1010.9 |
| 20260507143048 | 67 | 147 | 0.0 | 0.0 | 0.06 | 1.12 | 1.11 | 1 | 1010.8 |
| 20260507141544 | 67 | 147 | 0.0 | 0.0 | 0.05 | 1.11 | 1.09 | 1 | 1011.2 |
| 20260507140053 | 67 | 136 | 0.0 | 0.9 | 0.04 | 1.10 | 1.08 | 1 | 1011.2 |
| 20260507134535 | 67 | 124 | 0.0 | 1.7 | 0.04 | 1.08 | 1.06 | 1 | 1011.5 |
| 20260507133031 | 66 | 131 | 0.0 | 0.0 | 0.03 | 1.07 | 1.05 | 1 | 1011.6 |
| 20260507131535 | 66 | 129 | 0.0 | 0.9 | 0.02 | 1.06 | 1.04 | 1 | 1011.3 |
| 20260507130024 | 66 | 127 | 0.0 | 1.7 | 0.02 | 1.06 | 1.04 | 1 | 1011.3 |
| 20260507124519 | 66 | 131 | 0.0 | 0.0 | 0.00 | 1.04 | 1.02 | 1 | 1011.5 |
| 20260507123021 | 66 | 131 | 0.0 | 0.0 | 0.02 | 1.04 | 1.02 | 1 | 1011.4 |
| 20260507121510 | 65 | 131 | 0.0 | 0.0 | 0.06 | 1.04 | 1.02 | 1 | 1011.4 |
| 20260507120006 | 65 | 131 | 0.0 | 0.0 | 0.21 | 1.04 | 1.02 | 1 | 1011.8 |
| 20260507114501 | 65 | 131 | 0.0 | 1.7 | 0.59 | 1.04 | 1.02 | 1 | 1012.0 |
| 20260507113057 | 65 | 126 | 0.0 | 0.0 | 0.79 | 1.02 | 1.00 | 1 | 1012.0 |
| 20260507111553 | 65 | 126 | 0.0 | 0.9 | 0.84 | 0.98 | 0.96 | 1 | 1012.0 |
| 20260507110052 | 65 | 126 | 0.0 | 1.7 | 0.69 | 0.82 | 0.80 | 1 | 1011.8 |
| 20260507104547 | 65 | 125 | 0.0 | 0.0 | 0.33 | 0.46 | 0.44 | 1 | 1011.4 |
| 20260507103043 | 65 | 127 | 0.0 | 0.9 | 0.09 | 0.22 | 0.20 | 1 | 1011.8 |
| 20260507101557 | 65 | 127 | 0.0 | 0.0 | 0.01 | 0.14 | 0.12 | 1 | 1011.5 |
| 20260507100037 | 65 | 127 | 0.0 | 0.0 | 0.00 | 0.13 | 0.11 | 1 | 1011.6 |
| 20260507094531 | 65 | 127 | 0.0 | 0.0 | 0.01 | 0.13 | 0.11 | 1 | 1011.5 |
| 20260507093031 | 65 | 127 | 0.0 | 0.0 | 0.02 | 0.13 | 0.11 | 1 | 1011.5 |
| 20260507091546 | 65 | 127 | 0.0 | 0.0 | 0.02 | 0.13 | 0.11 | 1 | 1011.6 |
| 20260507090018 | 65 | 127 | 0.0 | 0.0 | 0.02 | 0.13 | 0.11 | 1 | 1011.6 |
| 20260507084513 | 65 | 127 | 0.0 | 1.7 | 0.02 | 0.12 | 0.10 | 1 | 1011.7 |
| 20260507083011 | 65 | 125 | 0.0 | 0.9 | 0.01 | 0.11 | 0.09 | 1 | 1012.0 |
| 20260507081505 | 65 | 115 | 0.0 | 0.0 | 0.01 | 0.11 | 0.09 | 1 | 1011.9 |
| 20260507080059 | 65 | 102 | 0.0 | 0.0 | 0.01 | 0.11 | 0.09 | 1 | 1011.8 |
| 20260507074555 | 65 | 118 | 0.0 | 0.9 | 0.00 | 0.10 | 0.08 | 1 | 1012.0 |
| 20260507073101 | 65 | 94 | 0.0 | 0.9 | 0.00 | 0.10 | 0.08 | 1 | 1012.3 |
| 20260507071546 | 65 | 94 | 0.0 | 0.0 | 0.00 | 0.10 | 0.08 | 1 | 1012.3 |
| 20260507070110 | 65 | 94 | 0.0 | 0.9 | 0.00 | 0.10 | 0.08 | 1 | 1012.6 |
| 20260507064541 | 65 | 126 | 0.0 | 1.7 | 0.00 | 0.10 | 0.08 | 1 | 1013.2 |
| 20260507063034 | 65 | 131 | 0.0 | 3.5 | 0.00 | 0.10 | 0.08 | 1 | 1013.1 |
| 20260507061533 | 65 | 136 | 0.0 | 2.6 | 0.02 | 0.10 | 0.08 | 1 | 1012.9 |
| 20260507060030 | 66 | 125 | 0.0 | 0.9 | 0.02 | 0.10 | 0.08 | 2 | 1013.0 |
| 20260507054523 | 66 | 124 | 0.0 | 0.0 | 0.04 | 0.10 | 0.08 | 4 | 1013.1 |
| 20260507053017 | 66 | 125 | 0.0 | 1.7 | 0.07 | 0.10 | 0.08 | 6 | 1013.2 |
| 20260507051516 | 66 | 120 | 0.0 | 0.0 | 0.05 | 0.08 | 0.06 | 11 | 1013.3 |
| 20260507050027 | 66 | 126 | 0.0 | 2.6 | 0.06 | 0.08 | 0.06 | 18 | 1013.1 |
| 20260507044523 | 67 | 140 | 0.0 | 7.0 | 0.03 | 0.05 | 0.03 | 25 | 1013.3 |
| 20260507043006 | 67 | 126 | 0.9 | 6.1 | 0.02 | 0.03 | 0.01 | 24 | 1014.2 |
| 20260507041504 | 67 | 131 | 0.0 | 5.2 | 0.02 | 0.03 | 0.01 | 26 | 1014.9 |
| 20260507040002 | 66 | 122 | 0.9 | 4.3 | 0.01 | 0.02 | 0.02 | 26 | 1014.3 |
| 20260507034603 | 66 | 123 | 0.0 | 0.0 | 0.02 | 0.02 | 0.02 | 34 | 1013.7 |
| 20260507033057 | 66 | 123 | 0.0 | 0.0 | 0.01 | 0.01 | 0.01 | 40 | 1013.6 |
| 20260507031554 | 67 | 123 | 0.0 | 0.0 | 0.01 | 0.01 | 0.01 | 47 | 1013.8 |
| 20260507030100 | 67 | 123 | 0.0 | 0.0 | 0.01 | 0.01 | 0.01 | 55 | 1013.5 |
| 20260507024550 | 67 | 123 | 0.0 | 0.0 | 0.00 | 0.00 | 0.00 | 61 | 1013.3 |
| 20260507023048 | 67 | 123 | 0.0 | 0.0 | 0.00 | 0.00 | 0.00 | 66 | 1013.1 |
| 20260507021602 | 67 | 123 | 0.0 | 0.0 | 0.00 | 0.00 | 0.00 | 69 | 1012.9 |
| 20260507020052 | 68 | 123 | 0.0 | 0.0 | 0.00 | 0.00 | 0.00 | 72 | 1013.0 |
| 20260507014607 | 68 | 123 | 0.0 | 0.0 | 0.00 | 0.00 | 0.00 | 73 | 1013.2 |
| 20260507013049 | 69 | 123 | 0.0 | 0.0 | 0.00 | 0.00 | 0.00 | 73 | 1013.0 |
| 20260507011546 | 69 | 123 | 0.0 | 0.0 | 0.00 | 0.00 | 0.00 | 74 | 1013.1 |